Time;durP1;ratioP1;P1;durP2;ratioP2;P2;SDS_P1;SDS_P2;PMS_P1;PMS_P2;Temp;Humidity;BMP_temperature;BMP_pressure;BME280_temperature;BME280_humidity;BME280_pressure;Samples;Min_cycle;Max_cycle;Signal;HPM_P1;HPM_P2
2021/11/16 00:01:26;;;;;;;19.85;2.90;;;;;;;;;;4866518;29;20052;-67
2021/11/16 00:03:56;;;;;;;20.25;3.00;;;;;;;;;;4903600;29;20061;-67
2021/11/16 00:06:26;;;;;;;12.43;2.30;;;;;;;;;;4924356;29;20052;-68
2021/11/16 00:08:57;;;;;;;11.73;2.50;;;;;;;;;;4911458;29;20052;-67
2021/11/16 00:11:27;;;;;;;16.77;2.80;;;;;;;;;;4916522;29;20064;-67
2021/11/16 00:13:59;;;;;;;12.75;2.40;;;;;;;;;;4905386;29;20170;-66
2021/11/16 00:16:30;;;;;;;10.60;2.28;;;;;;;;;;4908491;29;20052;-67
2021/11/16 00:19:02;;;;;;;16.10;2.92;;;;;;;;;;4920181;29;20208;-70
2021/11/16 00:21:33;;;;;;;17.50;2.90;;;;;;;;;;4925128;29;20067;-69
2021/11/16 00:24:11;;;;;;;20.63;3.42;;;;;;;;;;4931769;29;20210;-67
2021/11/16 00:26:42;;;;;;;16.15;2.67;;;;;;;;;;4896638;29;20063;-68
2021/11/16 00:29:13;;;;;;;23.52;3.50;;;;;;;;;;4896678;29;20079;-67
2021/11/16 00:31:44;;;;;;;13.43;2.60;;;;;;;;;;4887716;29;20056;-66
2021/11/16 00:34:16;;;;;;;16.35;2.80;;;;;;;;;;4917882;29;20070;-67
2021/11/16 00:36:46;;;;;;;25.23;3.45;;;;;;;;;;4934928;29;20059;-67
2021/11/16 00:39:16;;;;;;;16.98;3.33;;;;;;;;;;4934229;29;20056;-68
2021/11/16 00:41:47;;;;;;;21.77;3.33;;;;;;;;;;4924063;29;20532;-67
2021/11/16 00:44:19;;;;;;;10.82;3.10;;;;;;;;;;4912934;29;20052;-67
2021/11/16 00:46:49;;;;;;;11.10;2.95;;;;;;;;;;4899065;29;20056;-67
2021/11/16 00:49:19;;;;;;;16.25;3.22;;;;;;;;;;4887302;29;20065;-69
2021/11/16 00:51:50;;;;;;;20.08;3.20;;;;;;;;;;4910954;29;20055;-71
2021/11/16 00:54:21;;;;;;;14.35;3.15;;;;;;;;;;4939843;29;20058;-66
2021/11/16 00:56:52;;;;;;;18.05;3.15;;;;;;;;;;4952023;28;20047;-69
2021/11/16 00:59:26;;;;;;;15.77;3.30;;;;;;;;;;4936022;29;20504;-66
2021/11/16 01:01:56;;;;;;;14.98;2.97;;;;;;;;;;4955982;28;20051;-68
2021/11/16 01:04:29;;;;;;;17.60;3.25;;;;;;;;;;4922043;29;20063;-67
2021/11/16 01:07:03;;;;;;;21.42;3.17;;;;;;;;;;4924763;29;20059;-69
2021/11/16 01:09:34;;;;;;;24.25;3.55;;;;;;;;;;4925363;29;20067;-68
2021/11/16 01:12:05;;;;;;;12.27;3.28;;;;;;;;;;4923958;29;20067;-67
2021/11/16 01:14:36;;;;;;;16.00;4.00;;;;;;;;;;4929097;29;20508;-68
2021/11/16 01:17:09;;;;;;;17.63;3.85;;;;;;;;;;4933017;29;21053;-68
2021/11/16 01:19:40;;;;;;;14.95;3.80;;;;;;;;;;4927435;29;20052;-67
2021/11/16 01:22:11;;;;;;;13.65;3.10;;;;;;;;;;4953097;29;20043;-67
2021/11/16 01:24:41;;;;;;;21.88;4.00;;;;;;;;;;4937667;28;20047;-66
2021/11/16 01:27:17;;;;;;;14.98;3.80;;;;;;;;;;4953631;28;20055;-67
2021/11/16 01:30:07;;;;;;;19.75;4.07;;;;;;;;;;4952928;29;20047;-68
2021/11/16 01:32:45;;;;;;;13.65;3.33;;;;;;;;;;4952911;28;20063;-68
2021/11/16 01:35:16;;;;;;;22.50;3.60;;;;;;;;;;4946173;28;20055;-67
2021/11/16 01:37:48;;;;;;;15.25;3.33;;;;;;;;;;4953116;28;20059;-67
2021/11/16 01:40:20;;;;;;;18.77;3.72;;;;;;;;;;4952769;29;20052;-68
2021/11/16 01:42:52;;;;;;;18.52;3.38;;;;;;;;;;4952689;29;20066;-67
2021/11/16 01:45:24;;;;;;;19.85;3.65;;;;;;;;;;4952655;29;20047;-67
2021/11/16 01:47:54;;;;;;;12.88;2.97;;;;;;;;;;4952812;29;20063;-67
2021/11/16 01:50:26;;;;;;;22.42;3.72;;;;;;;;;;4949301;28;20051;-70
2021/11/16 01:53:17;;;;;;;17.27;3.38;;;;;;;;;;4915282;29;20051;-68
2021/11/16 01:55:48;;;;;;;20.80;4.15;;;;;;;;;;4930515;29;20070;-75
2021/11/16 01:58:19;;;;;;;23.67;3.83;;;;;;;;;;4898998;29;20060;-67
2021/11/16 02:00:50;;;;;;;14.40;3.35;;;;;;;;;;4867686;29;20062;-68
2021/11/16 02:03:22;;;;;;;14.70;3.97;;;;;;;;;;4858844;29;20601;-69
2021/11/16 02:06:23;;;;;;;13.27;3.92;;;;;;;;;;4872363;29;20064;-74
2021/11/16 02:08:55;;;;;;;16.85;3.72;;;;;;;;;;4854846;29;20077;-68
2021/11/16 02:11:26;;;;;;;11.43;3.47;;;;;;;;;;4855357;29;20049;-69
2021/11/16 02:13:57;;;;;;;12.88;3.95;;;;;;;;;;4834195;29;20054;-68
2021/11/16 02:16:28;;;;;;;20.00;4.00;;;;;;;;;;4857793;29;20097;-69
2021/11/16 02:19:00;;;;;;;12.85;3.65;;;;;;;;;;4883151;29;20052;-68
2021/11/16 02:21:32;;;;;;;18.67;4.00;;;;;;;;;;4895216;29;20061;-69
2021/11/16 02:24:04;;;;;;;15.10;3.33;;;;;;;;;;4913179;29;20075;-68
2021/11/16 02:26:35;;;;;;;18.52;3.85;;;;;;;;;;4916873;29;20052;-68
2021/11/16 02:29:07;;;;;;;16.55;3.00;;;;;;;;;;4912160;29;20397;-68
2021/11/16 02:31:38;;;;;;;16.83;3.42;;;;;;;;;;4925276;29;20059;-68
2021/11/16 02:34:09;;;;;;;14.50;3.08;;;;;;;;;;4932867;29;20059;-68
2021/11/16 02:36:41;;;;;;;15.10;3.95;;;;;;;;;;4947288;29;20055;-68
2021/11/16 02:39:15;;;;;;;12.10;3.60;;;;;;;;;;4952196;29;20066;-68
2021/11/16 02:41:53;;;;;;;14.20;3.83;;;;;;;;;;4883057;29;20064;-68
2021/11/16 02:44:24;;;;;;;14.65;3.20;;;;;;;;;;4891342;29;20057;-68
2021/11/16 02:46:55;;;;;;;13.95;3.45;;;;;;;;;;4876185;29;20060;-68
2021/11/16 02:49:25;;;;;;;19.35;3.70;;;;;;;;;;4894611;29;20052;-68
2021/11/16 02:51:56;;;;;;;19.55;3.40;;;;;;;;;;4898025;29;20059;-68
2021/11/16 02:54:27;;;;;;;14.98;4.07;;;;;;;;;;4882042;29;20060;-69
2021/11/16 02:56:58;;;;;;;12.60;3.45;;;;;;;;;;4913681;29;20063;-68
2021/11/16 02:59:28;;;;;;;18.77;3.50;;;;;;;;;;4913942;29;20416;-68
2021/11/16 03:01:59;;;;;;;21.60;4.30;;;;;;;;;;4913425;29;20049;-67
2021/11/16 03:04:34;;;;;;;10.60;3.88;;;;;;;;;;4894154;29;20067;-68
2021/11/16 03:07:05;;;;;;;19.02;3.60;;;;;;;;;;4894230;29;20060;-67
2021/11/16 03:09:35;;;;;;;16.42;3.88;;;;;;;;;;4909988;29;20056;-67
2021/11/16 03:12:06;;;;;;;15.23;3.38;;;;;;;;;;4894459;29;20072;-68
2021/11/16 03:14:37;;;;;;;8.27;4.10;;;;;;;;;;4875051;29;20049;-67
2021/11/16 03:17:08;;;;;;;17.90;3.97;;;;;;;;;;4876018;29;20053;-68
2021/11/16 03:19:39;;;;;;;14.13;3.97;;;;;;;;;;4876113;29;20175;-67
2021/11/16 03:22:10;;;;;;;19.75;5.20;;;;;;;;;;4885732;29;20075;-68
2021/11/16 03:24:42;;;;;;;11.38;3.88;;;;;;;;;;4913206;29;20052;-67
2021/11/16 03:27:15;;;;;;;19.25;4.00;;;;;;;;;;4911088;29;20051;-68
2021/11/16 03:29:48;;;;;;;7.80;3.35;;;;;;;;;;4950930;29;20051;-67
2021/11/16 03:32:19;;;;;;;17.35;3.55;;;;;;;;;;4951568;29;20067;-68
2021/11/16 03:34:50;;;;;;;15.80;4.35;;;;;;;;;;4936015;29;20423;-67
2021/11/16 03:37:21;;;;;;;13.45;3.33;;;;;;;;;;4951053;28;20051;-68
2021/11/16 03:39:54;;;;;;;14.95;4.40;;;;;;;;;;4975488;28;20473;-69
2021/11/16 03:42:26;;;;;;;12.88;4.10;;;;;;;;;;4985835;28;20050;-67
2021/11/16 03:44:56;;;;;;;;;;;;;;;;;;4990236;28;20046;-67
2021/11/16 03:47:26;;;;;;;13.90;3.63;;;;;;;;;;4974146;28;19922;-69
2021/11/16 03:49:57;;;;;;;12.77;3.67;;;;;;;;;;4966636;28;20059;-67
2021/11/16 03:52:27;;;;;;;13.90;4.25;;;;;;;;;;4958500;28;20412;-68
2021/11/16 03:54:58;;;;;;;10.45;4.43;;;;;;;;;;4931786;29;20056;-67
2021/11/16 03:57:29;;;;;;;12.98;4.22;;;;;;;;;;4932111;29;20420;-67
2021/11/16 03:59:59;;;;;;;13.43;4.60;;;;;;;;;;4931687;29;20055;-68
2021/11/16 04:02:31;;;;;;;13.98;4.93;;;;;;;;;;4932057;29;20059;-67
2021/11/16 04:05:04;;;;;;;11.77;4.40;;;;;;;;;;4931747;29;20067;-68
2021/11/16 04:07:35;;;;;;;13.57;4.25;;;;;;;;;;4932091;29;20073;-67
2021/11/16 04:10:13;;;;;;;12.02;4.45;;;;;;;;;;4947298;29;20436;-67
2021/11/16 04:12:45;;;;;;;16.33;4.63;;;;;;;;;;4931573;29;20387;-67
2021/11/16 04:15:18;;;;;;;12.45;4.03;;;;;;;;;;4943635;29;20500;-67
2021/11/16 04:17:50;;;;;;;9.18;4.40;;;;;;;;;;4950662;29;20059;-67
2021/11/16 04:20:31;;;;;;;13.27;4.30;;;;;;;;;;4931568;29;20052;-67
2021/11/16 04:23:03;;;;;;;15.00;4.70;;;;;;;;;;4931762;29;20055;-67
2021/11/16 04:25:37;;;;;;;11.88;4.70;;;;;;;;;;4912416;29;20053;-67
2021/11/16 04:28:10;;;;;;;15.15;4.40;;;;;;;;;;4874823;29;20072;-67
2021/11/16 04:30:42;;;;;;;11.73;4.60;;;;;;;;;;4844057;29;20057;-68
2021/11/16 04:33:14;;;;;;;12.95;4.10;;;;;;;;;;4875352;29;20250;-69
2021/11/16 04:35:45;;;;;;;11.55;3.92;;;;;;;;;;4856404;29;20073;-67
2021/11/16 04:38:18;;;;;;;18.10;4.38;;;;;;;;;;4856631;29;20534;-68
2021/11/16 04:40:54;;;;;;;12.77;4.13;;;;;;;;;;4856645;29;20057;-67
2021/11/16 04:43:29;;;;;;;17.35;4.55;;;;;;;;;;4859999;29;20064;-67
2021/11/16 04:46:07;;;;;;;11.68;3.78;;;;;;;;;;4860012;29;20061;-69
2021/11/16 04:59:39;;;;;;;10.88;3.95;;;;;;;;;;4936524;29;20450;-67
2021/11/16 05:04:58;;;;;;;13.00;4.20;;;;;;;;;;4992025;28;20058;-68
2021/11/16 05:07:31;;;;;;;10.90;3.85;;;;;;;;;;4972813;28;20077;-66
2021/11/16 05:10:05;;;;;;;9.88;3.88;;;;;;;;;;4976330;28;20530;-68
2021/11/16 05:12:36;;;;;;;14.32;4.15;;;;;;;;;;4992426;28;20058;-68
2021/11/16 05:15:12;;;;;;;12.38;3.97;;;;;;;;;;4992335;28;20061;-67
2021/11/16 05:17:47;;;;;;;14.60;4.43;;;;;;;;;;4992446;28;20062;-67
2021/11/16 05:20:19;;;;;;;10.30;3.88;;;;;;;;;;4992285;28;20058;-69
2021/11/16 05:22:54;;;;;;;10.57;3.67;;;;;;;;;;4992242;28;20050;-68
2021/11/16 05:25:25;;;;;;;15.00;3.80;;;;;;;;;;4943967;28;20066;-68
2021/11/16 05:27:55;;;;;;;17.52;4.15;;;;;;;;;;4972353;28;20050;-68
2021/11/16 05:30:28;;;;;;;14.38;4.38;;;;;;;;;;4953157;29;20055;-67
2021/11/16 05:32:59;;;;;;;12.30;4.40;;;;;;;;;;4953594;29;20063;-68
2021/11/16 05:35:30;;;;;;;11.52;4.30;;;;;;;;;;4915218;29;20416;-68
2021/11/16 05:38:00;;;;;;;14.40;4.32;;;;;;;;;;4933864;29;20051;-68
2021/11/16 05:40:31;;;;;;;12.80;4.40;;;;;;;;;;4902405;29;20059;-68
2021/11/16 05:43:02;;;;;;;12.13;4.40;;;;;;;;;;4946687;29;20412;-67
2021/11/16 05:45:34;;;;;;;16.23;3.88;;;;;;;;;;4890101;29;20047;-68
2021/11/16 05:48:05;;;;;;;11.13;4.25;;;;;;;;;;4953021;29;20397;-68
2021/11/16 05:50:36;;;;;;;10.38;4.40;;;;;;;;;;4953213;29;20063;-68
2021/11/16 05:53:08;;;;;;;12.55;4.03;;;;;;;;;;4936635;29;20047;-68
2021/11/16 05:55:59;;;;;;;11.10;4.13;;;;;;;;;;4933880;29;20067;-68
2021/11/16 05:58:30;;;;;;;13.10;3.88;;;;;;;;;;4933681;29;20051;-67
2021/11/16 06:01:00;;;;;;;14.05;4.25;;;;;;;;;;4931463;28;20063;-70
2021/11/16 06:03:31;;;;;;;14.05;3.85;;;;;;;;;;4948820;28;20056;-69
2021/11/16 06:06:02;;;;;;;11.15;3.90;;;;;;;;;;4933394;29;20055;-68
2021/11/16 06:08:32;;;;;;;11.00;4.07;;;;;;;;;;4895861;29;20068;-68
2021/11/16 06:11:02;;;;;;;14.77;4.30;;;;;;;;;;4876754;29;20069;-69
2021/11/16 06:13:33;;;;;;;11.95;3.83;;;;;;;;;;4876939;29;20060;-70
2021/11/16 06:16:06;;;;;;;9.98;4.15;;;;;;;;;;4833587;29;20065;-68
2021/11/16 06:18:37;;;;;;;8.13;4.18;;;;;;;;;;4854744;29;20536;-69
2021/11/16 06:21:07;;;;;;;13.23;3.90;;;;;;;;;;4836408;29;20073;-70
2021/11/16 06:23:38;;;;;;;9.43;4.13;;;;;;;;;;4836574;29;20045;-68
2021/11/16 06:26:09;;;;;;;12.85;3.78;;;;;;;;;;4857847;29;20056;-68
2021/11/16 06:28:41;;;;;;;8.65;3.97;;;;;;;;;;4827177;29;20054;-68
2021/11/16 06:31:11;;;;;;;10.30;4.13;;;;;;;;;;4857741;29;20065;-68
2021/11/16 06:33:42;;;;;;;12.02;4.35;;;;;;;;;;4867636;29;20075;-68
2021/11/16 06:36:13;;;;;;;10.60;4.68;;;;;;;;;;4876272;29;20053;-67
2021/11/16 06:38:43;;;;;;;11.05;4.40;;;;;;;;;;4876445;29;20057;-69
2021/11/16 06:41:13;;;;;;;12.80;4.18;;;;;;;;;;4845354;29;20057;-67
2021/11/16 06:43:48;;;;;;;12.15;4.20;;;;;;;;;;4876375;29;20053;-68
2021/11/16 06:46:19;;;;;;;16.35;4.22;;;;;;;;;;4865674;29;20166;-68
2021/11/16 06:48:49;;;;;;;11.52;4.32;;;;;;;;;;4857726;29;20064;-70
2021/11/16 06:51:20;;;;;;;11.35;4.30;;;;;;;;;;4896682;29;20550;-67
2021/11/16 06:53:50;;;;;;;9.20;4.20;;;;;;;;;;4913435;29;20060;-67
2021/11/16 06:56:28;;;;;;;15.25;4.28;;;;;;;;;;4913618;29;20064;-68
2021/11/16 06:59:06;;;;;;;8.75;3.97;;;;;;;;;;4913490;29;20064;-68
2021/11/16 07:01:39;;;;;;;11.10;4.55;;;;;;;;;;4932312;29;20163;-68
2021/11/16 07:04:13;;;;;;;10.85;4.65;;;;;;;;;;4887459;29;20056;-68
2021/11/16 07:06:48;;;;;;;8.98;3.95;;;;;;;;;;4875455;29;20856;-70
2021/11/16 07:09:20;;;;;;;12.23;4.53;;;;;;;;;;4872303;29;20053;-68
2021/11/16 07:11:54;;;;;;;8.65;4.13;;;;;;;;;;4857019;29;20053;-68
2021/11/16 07:14:27;;;;;;;7.75;4.43;;;;;;;;;;4825719;29;20054;-68
2021/11/16 07:16:59;;;;;;;8.90;4.47;;;;;;;;;;4838634;29;20566;-68
2021/11/16 07:19:33;;;;;;;;;;;;;;;;;;4820690;29;20050;-69
2021/11/16 07:22:11;;;;;;;8.52;4.25;;;;;;;;;;4802008;29;20405;-68
2021/11/16 07:24:52;;;;;;;10.15;3.97;;;;;;;;;;4834257;29;20533;-68
2021/11/16 07:27:34;;;;;;;8.25;4.50;;;;;;;;;;4801951;29;20527;-67
2021/11/16 07:30:09;;;;;;;8.63;4.32;;;;;;;;;;4801986;29;20054;-68
2021/11/16 07:32:55;;;;;;;12.57;4.53;;;;;;;;;;4802257;29;20055;-69
2021/11/16 07:35:31;;;;;;;10.95;4.53;;;;;;;;;;4802143;29;20184;-69
2021/11/16 07:38:23;;;;;;;11.68;3.83;;;;;;;;;;4796158;29;20059;-68
2021/11/16 07:40:56;;;;;;;11.20;4.38;;;;;;;;;;4785768;29;20055;-69
2021/11/16 07:43:31;;;;;;;10.00;4.00;;;;;;;;;;4795206;29;20059;-69
2021/11/16 07:46:01;;;;;;;12.57;4.38;;;;;;;;;;4782512;30;20068;-68
2021/11/16 07:48:32;;;;;;;9.32;4.15;;;;;;;;;;4787451;29;20067;-70
2021/11/16 07:51:13;;;;;;;9.45;4.10;;;;;;;;;;4821484;29;20054;-68
2021/11/16 07:53:50;;;;;;;11.98;4.70;;;;;;;;;;4841172;29;20069;-68
2021/11/16 07:56:40;;;;;;;11.88;4.78;;;;;;;;;;4843441;29;20057;-69
2021/11/16 07:59:11;;;;;;;9.52;4.28;;;;;;;;;;4826433;29;20597;-69
2021/11/16 08:04:24;;;;;;;9.82;4.57;;;;;;;;;;4893661;29;20417;-69
2021/11/16 08:09:51;;;;;;;10.15;4.28;;;;;;;;;;4913053;29;20071;-68
2021/11/16 08:15:06;;;;;;;8.55;4.18;;;;;;;;;;4864429;29;20064;-69
2021/11/16 08:17:38;;;;;;;10.48;4.28;;;;;;;;;;4935206;29;20511;-68
2021/11/16 08:20:14;;;;;;;12.38;4.05;;;;;;;;;;4936501;29;20058;-68
2021/11/16 08:22:46;;;;;;;9.68;4.07;;;;;;;;;;4954619;29;20062;-69
2021/11/16 08:25:16;;;;;;;10.65;4.40;;;;;;;;;;4894424;29;20051;-70
2021/11/16 08:27:47;;;;;;;11.55;4.22;;;;;;;;;;4935362;29;20062;-68
2021/11/16 08:30:23;;;;;;;9.10;4.38;;;;;;;;;;4973639;28;20483;-69
2021/11/16 08:33:02;;;;;;;11.05;4.50;;;;;;;;;;4973853;28;20058;-69
2021/11/16 08:35:33;;;;;;;17.15;4.85;;;;;;;;;;4973794;28;20082;-69
2021/11/16 08:38:05;;;;;;;12.13;4.22;;;;;;;;;;4973336;28;20058;-68
2021/11/16 08:40:39;;;;;;;9.77;4.57;;;;;;;;;;4973336;28;20062;-69
2021/11/16 08:43:14;;;;;;;9.23;4.47;;;;;;;;;;4957669;28;20063;-69
2021/11/16 08:45:49;;;;;;;8.93;4.18;;;;;;;;;;4996095;28;20545;-68
2021/11/16 08:48:27;;;;;;;7.80;4.40;;;;;;;;;;4934543;29;20051;-69
2021/11/16 08:51:02;;;;;;;8.52;4.68;;;;;;;;;;4919566;29;20071;-68
2021/11/16 08:53:37;;;;;;;7.82;4.00;;;;;;;;;;4935063;29;20055;-68
2021/11/16 08:56:22;;;;;;;14.63;4.72;;;;;;;;;;4912820;29;20056;-69
2021/11/16 08:59:14;;;;;;;11.15;4.15;;;;;;;;;;4884336;29;20063;-68
2021/11/16 09:01:57;;;;;;;9.13;4.10;;;;;;;;;;4896554;29;20056;-68
2021/11/16 09:04:30;;;;;;;7.32;4.10;;;;;;;;;;4881088;29;20473;-68
2021/11/16 09:07:01;;;;;;;13.15;3.92;;;;;;;;;;4845557;29;20053;-69
2021/11/16 09:09:32;;;;;;;8.98;3.60;;;;;;;;;;4859683;29;20072;-68
2021/11/16 09:12:07;;;;;;;8.85;4.07;;;;;;;;;;4877516;29;20052;-69
2021/11/16 09:14:50;;;;;;;8.32;4.40;;;;;;;;;;4876965;29;20069;-69
2021/11/16 09:17:20;;;;;;;12.00;4.55;;;;;;;;;;4863755;29;20098;-69
2021/11/16 09:19:51;;;;;;;11.65;4.80;;;;;;;;;;4896428;29;20056;-68
2021/11/16 09:22:22;;;;;;;9.07;4.45;;;;;;;;;;4850310;29;20052;-68
2021/11/16 09:24:57;;;;;;;8.57;4.30;;;;;;;;;;4880412;29;20430;-69
2021/11/16 09:27:41;;;;;;;11.73;4.75;;;;;;;;;;4933057;29;20528;-68
2021/11/16 09:30:14;;;;;;;10.30;3.72;;;;;;;;;;4934354;29;20062;-68
2021/11/16 09:33:08;;;;;;;13.02;4.43;;;;;;;;;;4914517;29;20044;-68
2021/11/16 09:35:55;;;;;;;10.95;3.92;;;;;;;;;;4915200;29;20064;-68
2021/11/16 09:38:57;;;;;;;8.38;4.30;;;;;;;;;;4914736;29;20048;-68
2021/11/16 09:41:44;;;;;;;10.07;3.55;;;;;;;;;;4920969;29;20633;-68
2021/11/16 09:44:26;;;;;;;8.48;4.40;;;;;;;;;;4934102;29;20044;-68
2021/11/16 09:47:00;;;;;;;10.27;4.50;;;;;;;;;;4934866;29;20055;-68
2021/11/16 09:49:52;;;;;;;13.38;4.18;;;;;;;;;;4935703;29;20063;-68
2021/11/16 09:52:32;;;;;;;12.63;4.18;;;;;;;;;;4937278;29;20066;-68
2021/11/16 09:55:12;;;;;;;12.68;4.38;;;;;;;;;;4933527;29;20511;-68
2021/11/16 09:57:47;;;;;;;7.85;4.00;;;;;;;;;;4914527;29;20055;-68
2021/11/16 10:00:19;;;;;;;16.75;4.80;;;;;;;;;;4909846;29;20055;-67
2021/11/16 10:03:14;;;;;;;9.85;4.22;;;;;;;;;;4921187;29;20055;-67
2021/11/16 10:05:48;;;;;;;10.20;3.75;;;;;;;;;;4880778;29;20548;-67
2021/11/16 10:08:21;;;;;;;12.40;4.00;;;;;;;;;;4887972;29;20056;-68
2021/11/16 10:11:12;;;;;;;11.80;4.30;;;;;;;;;;4894811;29;20623;-67
2021/11/16 10:13:43;;;;;;;8.75;3.80;;;;;;;;;;4888985;29;20057;-67
2021/11/16 10:16:14;;;;;;;8.07;4.55;;;;;;;;;;4839814;29;20054;-67
2021/11/16 10:18:45;;;;;;;7.82;4.20;;;;;;;;;;4846124;29;20078;-67
2021/11/16 10:21:15;;;;;;;7.72;4.38;;;;;;;;;;4862322;29;20049;-66
2021/11/16 10:23:50;;;;;;;10.70;4.70;;;;;;;;;;4876551;29;20053;-67
2021/11/16 10:26:21;;;;;;;10.27;4.63;;;;;;;;;;4876791;29;20057;-66
2021/11/16 10:28:51;;;;;;;9.35;4.15;;;;;;;;;;4884673;29;20064;-66
2021/11/16 10:31:30;;;;;;;10.60;4.32;;;;;;;;;;4850235;29;20053;-67
2021/11/16 10:34:02;;;;;;;11.63;4.22;;;;;;;;;;4860105;29;20073;-66
2021/11/16 10:36:33;;;;;;;13.45;4.82;;;;;;;;;;4875923;29;20056;-66
2021/11/16 10:39:03;;;;;;;12.90;4.53;;;;;;;;;;4881306;29;20089;-66
2021/11/16 10:41:37;;;;;;;9.73;3.60;;;;;;;;;;4903395;29;20048;-66
2021/11/16 10:44:11;;;;;;;9.93;4.50;;;;;;;;;;4880581;29;20465;-66
2021/11/16 10:46:45;;;;;;;13.50;4.63;;;;;;;;;;4876256;29;20057;-66
2021/11/16 10:49:19;;;;;;;13.85;4.00;;;;;;;;;;4920590;29;20055;-67
2021/11/16 10:51:50;;;;;;;8.07;4.13;;;;;;;;;;4932620;29;20062;-66
2021/11/16 10:54:21;;;;;;;11.90;4.18;;;;;;;;;;4900754;29;20078;-66
2021/11/16 10:57:04;;;;;;;8.98;4.18;;;;;;;;;;4951356;28;20078;-67
2021/11/16 10:59:37;;;;;;;8.50;4.38;;;;;;;;;;4962447;28;20055;-66
2021/11/16 11:02:18;;;;;;;11.30;4.57;;;;;;;;;;4970721;28;20566;-65
2021/11/16 11:04:50;;;;;;;9.52;4.35;;;;;;;;;;4970249;28;20055;-66
2021/11/16 11:07:26;;;;;;;10.30;4.20;;;;;;;;;;4971153;28;20633;-67
2021/11/16 11:10:00;;;;;;;10.35;4.40;;;;;;;;;;4919950;29;21120;-64
2021/11/16 11:12:33;;;;;;;10.20;4.65;;;;;;;;;;4958973;28;20059;-64
2021/11/16 11:15:04;;;;;;;7.90;4.30;;;;;;;;;;4953834;28;20047;-66
2021/11/16 11:17:36;;;;;;;9.73;4.18;;;;;;;;;;4926007;29;20493;-66
2021/11/16 11:20:10;;;;;;;11.50;4.28;;;;;;;;;;4904956;29;20541;-66
2021/11/16 11:22:43;;;;;;;7.78;4.30;;;;;;;;;;4847255;29;20068;-66
2021/11/16 11:28:11;;;;;;;8.45;3.92;;;;;;;;;;4844892;29;20052;-67
2021/11/16 11:30:42;;;;;;;8.10;4.47;;;;;;;;;;4852269;29;20066;-66
2021/11/16 11:33:13;;;;;;;11.75;4.15;;;;;;;;;;4874732;29;20198;-68
2021/11/16 11:35:44;;;;;;;8.75;3.90;;;;;;;;;;4857418;29;20176;-66
2021/11/16 11:38:15;;;;;;;6.72;4.00;;;;;;;;;;4875328;29;20049;-66
2021/11/16 11:40:45;;;;;;;10.13;4.38;;;;;;;;;;4875494;29;20481;-66
2021/11/16 11:43:20;;;;;;;7.40;4.05;;;;;;;;;;4875660;29;20056;-66
2021/11/16 11:45:51;;;;;;;6.63;4.00;;;;;;;;;;4875731;29;20060;-66
2021/11/16 11:48:23;;;;;;;8.20;3.60;;;;;;;;;;4927810;29;20052;-66
2021/11/16 11:50:58;;;;;;;9.75;3.83;;;;;;;;;;4933997;29;20063;-66
2021/11/16 11:53:31;;;;;;;9.70;3.83;;;;;;;;;;4935569;29;20524;-65
2021/11/16 11:56:13;;;;;;;9.20;4.00;;;;;;;;;;4935563;29;20052;-66
2021/11/16 11:58:45;;;;;;;8.88;3.83;;;;;;;;;;4934204;29;20120;-66
2021/11/16 12:01:21;;;;;;;10.85;4.32;;;;;;;;;;4954539;28;20160;-65
2021/11/16 12:03:53;;;;;;;9.20;3.90;;;;;;;;;;4980830;28;20058;-68
2021/11/16 12:06:26;;;;;;;8.05;4.00;;;;;;;;;;4994188;28;20462;-64
2021/11/16 12:08:59;;;;;;;10.55;3.72;;;;;;;;;;4977689;28;20058;-65
2021/11/16 12:11:29;;;;;;;6.88;3.90;;;;;;;;;;4993741;28;20143;-63
2021/11/16 12:14:06;;;;;;;8.77;3.58;;;;;;;;;;4961224;28;20077;-64
2021/11/16 12:17:00;;;;;;;10.32;4.10;;;;;;;;;;5022622;28;20065;-64
2021/11/16 12:19:47;;;;;;;12.55;3.90;;;;;;;;;;5016771;28;20501;-64
2021/11/16 12:22:24;;;;;;;7.40;3.67;;;;;;;;;;5032686;28;20068;-64
2021/11/16 12:24:59;;;;;;;8.82;3.40;;;;;;;;;;4999538;28;20052;-64
2021/11/16 12:27:34;;;;;;;8.93;3.50;;;;;;;;;;5032691;28;20057;-64
2021/11/16 12:30:06;;;;;;;6.18;3.30;;;;;;;;;;4980335;28;20549;-66
2021/11/16 12:32:49;;;;;;;7.32;3.53;;;;;;;;;;4992890;28;20549;-65
2021/11/16 12:35:21;;;;;;;7.30;3.17;;;;;;;;;;4993512;28;20050;-65
2021/11/16 12:37:54;;;;;;;5.05;3.30;;;;;;;;;;4993026;28;20058;-63
2021/11/16 12:40:41;;;;;;;8.93;3.50;;;;;;;;;;4996005;28;20054;-65
2021/11/16 12:43:17;;;;;;;11.50;3.83;;;;;;;;;;5015896;28;20382;-67
2021/11/16 12:45:56;;;;;;;6.80;3.28;;;;;;;;;;5032358;28;20046;-64
2021/11/16 12:48:56;;;;;;;9.85;3.35;;;;;;;;;;5012340;28;20114;-64
2021/11/16 12:51:31;;;;;;;8.90;3.35;;;;;;;;;;5012686;28;20058;-67
2021/11/16 12:54:06;;;;;;;5.57;3.35;;;;;;;;;;5012375;28;20062;-66
2021/11/16 12:56:42;;;;;;;5.85;3.45;;;;;;;;;;5012353;28;20061;-67
2021/11/16 12:59:18;;;;;;;6.15;2.80;;;;;;;;;;5012330;28;20054;-64
2021/11/16 13:01:48;;;;;;;7.00;3.13;;;;;;;;;;4987653;28;20051;-65
2021/11/16 13:04:50;;;;;;;9.10;3.95;;;;;;;;;;4957342;28;20054;-64
2021/11/16 13:07:29;;;;;;;13.50;3.25;;;;;;;;;;4980047;28;20055;-65
2021/11/16 13:10:08;;;;;;;8.52;2.88;;;;;;;;;;5000454;28;20058;-64
2021/11/16 13:12:55;;;;;;;8.55;2.78;;;;;;;;;;4992580;28;20058;-64
2021/11/16 13:15:27;;;;;;;6.20;3.15;;;;;;;;;;4992067;28;20046;-65
2021/11/16 13:18:00;;;;;;;9.10;3.22;;;;;;;;;;4992478;28;20058;-65
2021/11/16 13:20:45;;;;;;;26.23;3.17;;;;;;;;;;4992504;28;20061;-64
2021/11/16 13:23:16;;;;;;;7.20;2.83;;;;;;;;;;4992275;28;20102;-63
2021/11/16 13:25:53;;;;;;;9.38;3.03;;;;;;;;;;4972679;28;20388;-63
2021/11/16 13:31:16;;;;;;;7.25;2.65;;;;;;;;;;4972802;28;20061;-63
2021/11/16 13:33:52;;;;;;;4.93;2.65;;;;;;;;;;4972382;28;20046;-64
2021/11/16 13:37:15;;;;;;;5.40;2.55;;;;;;;;;;4958945;28;20061;-64
2021/11/16 13:40:15;;;;;;;8.05;2.45;;;;;;;;;;4979372;28;20418;-68
2021/11/16 13:42:46;;;;;;;5.25;2.38;;;;;;;;;;4952859;29;20055;-65
2021/11/16 13:45:19;;;;;;;7.78;2.80;;;;;;;;;;4953178;29;20066;-65
2021/11/16 13:47:52;;;;;;;5.35;2.78;;;;;;;;;;4953216;29;20051;-66
2021/11/16 13:50:28;;;;;;;8.38;3.15;;;;;;;;;;4942200;29;20450;-65
2021/11/16 13:53:05;;;;;;;4.85;2.53;;;;;;;;;;4914879;29;20068;-64
2021/11/16 13:55:44;;;;;;;8.82;3.40;;;;;;;;;;4914440;29;20555;-62
2021/11/16 13:58:20;;;;;;;11.20;2.80;;;;;;;;;;4914605;29;20473;-63
2021/11/16 14:00:56;;;;;;;6.32;2.08;;;;;;;;;;4898999;29;20064;-64
2021/11/16 14:03:27;;;;;;;7.20;2.75;;;;;;;;;;4904762;29;20082;-65
2021/11/16 14:06:00;;;;;;;7.65;2.58;;;;;;;;;;4895758;29;20053;-64
2021/11/16 14:08:50;;;;;;;8.05;2.90;;;;;;;;;;4840402;29;20060;-62
2021/11/16 14:11:21;;;;;;;8.70;2.40;;;;;;;;;;4817825;29;21123;-64
2021/11/16 14:13:52;;;;;;;8.23;2.83;;;;;;;;;;4873954;29;20061;-64
2021/11/16 14:16:30;;;;;;;14.38;2.80;;;;;;;;;;4914050;29;20052;-63
2021/11/16 14:19:03;;;;;;;6.05;2.30;;;;;;;;;;4914414;29;20063;-65
2021/11/16 14:21:38;;;;;;;12.32;2.78;;;;;;;;;;4883161;29;20063;-66
2021/11/16 14:24:09;;;;;;;5.60;2.40;;;;;;;;;;4892924;29;20127;-63
2021/11/16 14:26:44;;;;;;;5.20;2.47;;;;;;;;;;4924899;29;20056;-67
2021/11/16 14:29:18;;;;;;;7.43;2.75;;;;;;;;;;4933000;29;20059;-65
2021/11/16 14:31:50;;;;;;;6.47;2.47;;;;;;;;;;4933195;29;20128;-66
2021/11/16 14:34:26;;;;;;;3.60;2.15;;;;;;;;;;4901197;29;20085;-67
2021/11/16 14:37:01;;;;;;;6.05;2.78;;;;;;;;;;4933158;29;20051;-64
2021/11/16 14:39:33;;;;;;;4.22;2.70;;;;;;;;;;4940903;29;20059;-63
2021/11/16 14:42:07;;;;;;;6.30;2.60;;;;;;;;;;4932685;29;20060;-64
2021/11/16 14:44:51;;;;;;;3.75;2.05;;;;;;;;;;4917567;29;20067;-65
2021/11/16 14:47:23;;;;;;;7.20;2.25;;;;;;;;;;4962599;28;20058;-65
2021/11/16 14:49:59;;;;;;;8.07;2.33;;;;;;;;;;4988197;28;20058;-64
2021/11/16 14:52:33;;;;;;;4.90;2.35;;;;;;;;;;5010286;28;20509;-65
2021/11/16 14:55:10;;;;;;;6.65;2.28;;;;;;;;;;5012804;28;20493;-64
2021/11/16 14:57:45;;;;;;;7.15;2.30;;;;;;;;;;5010019;28;20050;-64
2021/11/16 15:00:34;;;;;;;8.60;2.45;;;;;;;;;;5010076;28;20054;-62
2021/11/16 15:03:11;;;;;;;9.90;2.42;;;;;;;;;;4993793;28;21083;-63
2021/11/16 15:05:48;;;;;;;5.28;1.83;;;;;;;;;;4994047;28;20049;-64
2021/11/16 15:08:24;;;;;;;4.38;2.50;;;;;;;;;;5009784;28;20060;-64
2021/11/16 15:11:06;;;;;;;6.88;2.03;;;;;;;;;;5009966;28;20054;-64
2021/11/16 15:13:38;;;;;;;5.90;2.40;;;;;;;;;;4993728;28;20057;-64
2021/11/16 15:16:18;;;;;;;6.18;2.42;;;;;;;;;;5009836;28;20406;-62
2021/11/16 15:19:13;;;;;;;4.82;1.92;;;;;;;;;;4990653;28;20054;-63
2021/11/16 15:22:02;;;;;;;5.85;2.15;;;;;;;;;;4990530;28;20081;-64
2021/11/16 15:27:23;;;;;;;4.88;1.77;;;;;;;;;;4970711;28;20058;-64
2021/11/16 15:30:13;;;;;;;5.90;1.98;;;;;;;;;;4979737;28;20062;-64
2021/11/16 15:33:07;;;;;;;4.97;1.80;;;;;;;;;;4990276;28;20074;-65
2021/11/16 15:36:00;;;;;;;3.80;1.90;;;;;;;;;;4974123;28;20046;-64
2021/11/16 15:38:43;;;;;;;3.75;1.90;;;;;;;;;;4989944;28;20062;-64
2021/11/16 15:41:29;;;;;;;4.32;2.00;;;;;;;;;;4990263;28;20058;-64
2021/11/16 15:44:15;;;;;;;4.18;1.45;;;;;;;;;;5009347;28;20057;-71
2021/11/16 15:47:05;;;;;;;6.53;1.80;;;;;;;;;;5009537;28;20527;-64
2021/11/16 15:57:43;;;;;;;4.63;2.00;;;;;;;;;;4953634;28;20407;-63
2021/11/16 16:00:20;;;;;;;3.15;1.63;;;;;;;;;;4951019;28;20047;-64